sensor_id;sensor_type;location;lat;lon;timestamp;temperature;humidity
356;DHT22;62514;48.112;11.566;2024-01-27T00:01:43;2.60;36.30
356;DHT22;62514;48.112;11.566;2024-01-27T00:04:09;2.60;36.60
356;DHT22;62514;48.112;11.566;2024-01-27T00:06:36;2.50;37.10
356;DHT22;62514;48.112;11.566;2024-01-27T00:09:02;2.50;37.60
356;DHT22;62514;48.112;11.566;2024-01-27T00:11:28;2.50;37.60
356;DHT22;62514;48.112;11.566;2024-01-27T00:13:54;2.50;37.60
356;DHT22;62514;48.112;11.566;2024-01-27T00:16:20;2.50;37.90
356;DHT22;62514;48.112;11.566;2024-01-27T00:18:46;2.50;38.00
356;DHT22;62514;48.112;11.566;2024-01-27T00:21:12;2.40;37.90
356;DHT22;62514;48.112;11.566;2024-01-27T00:23:38;2.40;38.90
356;DHT22;62514;48.112;11.566;2024-01-27T00:26:04;2.40;38.70
356;DHT22;62514;48.112;11.566;2024-01-27T00:28:30;2.30;38.70
356;DHT22;62514;48.112;11.566;2024-01-27T00:30:56;2.30;39.20
356;DHT22;62514;48.112;11.566;2024-01-27T00:33:22;2.30;38.90
356;DHT22;62514;48.112;11.566;2024-01-27T00:35:48;2.30;38.50
356;DHT22;62514;48.112;11.566;2024-01-27T00:38:14;2.20;38.60
356;DHT22;62514;48.112;11.566;2024-01-27T00:40:40;2.20;38.90
356;DHT22;62514;48.112;11.566;2024-01-27T00:43:06;2.20;39.00
356;DHT22;62514;48.112;11.566;2024-01-27T00:45:32;2.30;39.00
356;DHT22;62514;48.112;11.566;2024-01-27T00:47:58;2.20;38.50
356;DHT22;62514;48.112;11.566;2024-01-27T00:50:25;2.10;39.60
356;DHT22;62514;48.112;11.566;2024-01-27T00:52:51;2.00;39.60
356;DHT22;62514;48.112;11.566;2024-01-27T00:55:17;2.00;40.00
356;DHT22;62514;48.112;11.566;2024-01-27T00:57:43;2.00;40.90
356;DHT22;62514;48.112;11.566;2024-01-27T01:00:10;2.00;41.20
356;DHT22;62514;48.112;11.566;2024-01-27T01:02:37;1.90;41.50
356;DHT22;62514;48.112;11.566;2024-01-27T01:05:04;2.00;42.10
356;DHT22;62514;48.112;11.566;2024-01-27T01:07:30;2.00;42.20
356;DHT22;62514;48.112;11.566;2024-01-27T01:09:56;2.00;42.70
356;DHT22;62514;48.112;11.566;2024-01-27T01:12:22;2.10;42.20
356;DHT22;62514;48.112;11.566;2024-01-27T01:14:48;2.20;41.50
356;DHT22;62514;48.112;11.566;2024-01-27T01:17:14;2.10;40.10
356;DHT22;62514;48.112;11.566;2024-01-27T01:19:41;2.20;40.10
356;DHT22;62514;48.112;11.566;2024-01-27T01:22:07;2.20;40.00
356;DHT22;62514;48.112;11.566;2024-01-27T01:24:33;2.20;39.10
356;DHT22;62514;48.112;11.566;2024-01-27T01:26:59;2.30;39.40
356;DHT22;62514;48.112;11.566;2024-01-27T01:29:26;2.30;38.40
356;DHT22;62514;48.112;11.566;2024-01-27T01:31:52;2.40;37.70
356;DHT22;62514;48.112;11.566;2024-01-27T01:34:18;2.30;37.50
356;DHT22;62514;48.112;11.566;2024-01-27T01:36:44;2.30;37.80
356;DHT22;62514;48.112;11.566;2024-01-27T01:39:11;2.30;37.70
356;DHT22;62514;48.112;11.566;2024-01-27T01:41:39;2.20;37.90
356;DHT22;62514;48.112;11.566;2024-01-27T01:44:06;2.20;38.70
356;DHT22;62514;48.112;11.566;2024-01-27T01:46:32;2.10;38.60
356;DHT22;62514;48.112;11.566;2024-01-27T01:48:59;2.20;38.80
356;DHT22;62514;48.112;11.566;2024-01-27T01:51:26;2.10;38.80
356;DHT22;62514;48.112;11.566;2024-01-27T01:53:58;2.00;38.70
356;DHT22;62514;48.112;11.566;2024-01-27T01:56:25;1.90;40.00
356;DHT22;62514;48.112;11.566;2024-01-27T01:58:50;1.90;40.00
356;DHT22;62514;48.112;11.566;2024-01-27T02:01:19;2.00;40.00
356;DHT22;62514;48.112;11.566;2024-01-27T02:03:54;2.00;38.60
356;DHT22;62514;48.112;11.566;2024-01-27T02:06:20;2.00;37.30
356;DHT22;62514;48.112;11.566;2024-01-27T02:08:46;2.10;37.40
356;DHT22;62514;48.112;11.566;2024-01-27T02:11:12;2.20;36.90
356;DHT22;62514;48.112;11.566;2024-01-27T02:13:38;2.20;35.90
356;DHT22;62514;48.112;11.566;2024-01-27T02:16:04;2.20;36.20
356;DHT22;62514;48.112;11.566;2024-01-27T02:18:30;2.30;35.60
356;DHT22;62514;48.112;11.566;2024-01-27T02:20:56;2.30;35.40
356;DHT22;62514;48.112;11.566;2024-01-27T02:23:22;2.20;34.70
356;DHT22;62514;48.112;11.566;2024-01-27T02:25:48;2.20;34.70
356;DHT22;62514;48.112;11.566;2024-01-27T02:28:16;2.10;34.70
356;DHT22;62514;48.112;11.566;2024-01-27T02:30:42;2.20;34.70
356;DHT22;62514;48.112;11.566;2024-01-27T02:33:08;2.30;34.20
356;DHT22;62514;48.112;11.566;2024-01-27T02:35:34;2.30;33.70
356;DHT22;62514;48.112;11.566;2024-01-27T02:38:00;2.20;32.40
356;DHT22;62514;48.112;11.566;2024-01-27T02:40:26;2.30;33.10
356;DHT22;62514;48.112;11.566;2024-01-27T02:42:52;2.30;32.90
356;DHT22;62514;48.112;11.566;2024-01-27T02:45:18;2.30;32.80
356;DHT22;62514;48.112;11.566;2024-01-27T02:47:44;2.40;32.60
356;DHT22;62514;48.112;11.566;2024-01-27T02:50:10;2.40;32.50
356;DHT22;62514;48.112;11.566;2024-01-27T02:52:37;2.30;32.90
356;DHT22;62514;48.112;11.566;2024-01-27T02:55:03;2.40;32.20
356;DHT22;62514;48.112;11.566;2024-01-27T02:57:29;2.40;32.60
356;DHT22;62514;48.112;11.566;2024-01-27T02:59:55;2.30;32.10
356;DHT22;62514;48.112;11.566;2024-01-27T03:02:21;2.40;32.60
356;DHT22;62514;48.112;11.566;2024-01-27T03:04:46;2.30;31.70
356;DHT22;62514;48.112;11.566;2024-01-27T03:07:12;2.30;32.70
356;DHT22;62514;48.112;11.566;2024-01-27T03:09:38;2.30;32.50
356;DHT22;62514;48.112;11.566;2024-01-27T03:12:04;2.30;32.60
356;DHT22;62514;48.112;11.566;2024-01-27T03:14:30;2.30;32.40
356;DHT22;62514;48.112;11.566;2024-01-27T03:16:57;2.30;32.10
356;DHT22;62514;48.112;11.566;2024-01-27T03:19:23;2.20;32.50
356;DHT22;62514;48.112;11.566;2024-01-27T03:21:49;2.20;32.90
356;DHT22;62514;48.112;11.566;2024-01-27T03:24:15;2.30;32.80
356;DHT22;62514;48.112;11.566;2024-01-27T03:26:42;2.30;33.00
356;DHT22;62514;48.112;11.566;2024-01-27T03:29:08;2.20;33.50
356;DHT22;62514;48.112;11.566;2024-01-27T03:31:34;2.20;33.50
356;DHT22;62514;48.112;11.566;2024-01-27T03:34:00;2.20;33.20
356;DHT22;62514;48.112;11.566;2024-01-27T03:36:26;2.30;33.00
356;DHT22;62514;48.112;11.566;2024-01-27T03:38:52;2.30;32.90
356;DHT22;62514;48.112;11.566;2024-01-27T03:41:18;2.30;33.10
356;DHT22;62514;48.112;11.566;2024-01-27T03:43:44;2.30;32.90
356;DHT22;62514;48.112;11.566;2024-01-27T03:46:10;2.30;33.20
356;DHT22;62514;48.112;11.566;2024-01-27T03:48:36;2.30;33.20
356;DHT22;62514;48.112;11.566;2024-01-27T03:51:03;2.20;32.60
356;DHT22;62514;48.112;11.566;2024-01-27T03:53:29;2.20;32.80
356;DHT22;62514;48.112;11.566;2024-01-27T03:55:55;2.10;33.50
356;DHT22;62514;48.112;11.566;2024-01-27T03:58:24;2.10;33.10
356;DHT22;62514;48.112;11.566;2024-01-27T04:00:51;2.20;33.70
356;DHT22;62514;48.112;11.566;2024-01-27T04:03:17;2.20;33.10
356;DHT22;62514;48.112;11.566;2024-01-27T04:05:43;2.20;33.20
356;DHT22;62514;48.112;11.566;2024-01-27T04:08:09;2.20;33.00
356;DHT22;62514;48.112;11.566;2024-01-27T04:10:36;2.20;32.90
356;DHT22;62514;48.112;11.566;2024-01-27T04:13:02;2.20;32.90
356;DHT22;62514;48.112;11.566;2024-01-27T04:15:28;2.10;33.10
356;DHT22;62514;48.112;11.566;2024-01-27T04:17:54;2.10;33.60
356;DHT22;62514;48.112;11.566;2024-01-27T04:20:20;2.10;33.90
356;DHT22;62514;48.112;11.566;2024-01-27T04:22:46;2.10;33.80
356;DHT22;62514;48.112;11.566;2024-01-27T04:25:12;2.10;33.50
356;DHT22;62514;48.112;11.566;2024-01-27T04:27:39;2.10;33.30
356;DHT22;62514;48.112;11.566;2024-01-27T04:30:06;2.10;33.40
356;DHT22;62514;48.112;11.566;2024-01-27T04:32:32;2.10;33.20
356;DHT22;62514;48.112;11.566;2024-01-27T04:34:58;2.10;33.70
356;DHT22;62514;48.112;11.566;2024-01-27T04:37:24;2.00;33.50
356;DHT22;62514;48.112;11.566;2024-01-27T04:39:50;2.00;33.60
356;DHT22;62514;48.112;11.566;2024-01-27T04:42:16;2.10;33.60
356;DHT22;62514;48.112;11.566;2024-01-27T04:44:42;2.10;33.30
356;DHT22;62514;48.112;11.566;2024-01-27T04:47:08;2.00;33.20
356;DHT22;62514;48.112;11.566;2024-01-27T04:49:34;2.00;33.20
356;DHT22;62514;48.112;11.566;2024-01-27T04:52:00;1.90;33.50
356;DHT22;62514;48.112;11.566;2024-01-27T04:54:26;1.90;33.70
356;DHT22;62514;48.112;11.566;2024-01-27T04:56:52;1.80;34.50
356;DHT22;62514;48.112;11.566;2024-01-27T04:59:18;1.80;34.50
356;DHT22;62514;48.112;11.566;2024-01-27T05:01:47;1.80;34.50
356;DHT22;62514;48.112;11.566;2024-01-27T05:04:13;1.80;34.50
356;DHT22;62514;48.112;11.566;2024-01-27T05:06:44;1.70;34.60
356;DHT22;62514;48.112;11.566;2024-01-27T05:09:10;1.70;34.60
356;DHT22;62514;48.112;11.566;2024-01-27T05:11:36;1.70;34.50
356;DHT22;62514;48.112;11.566;2024-01-27T05:14:02;1.60;34.50
356;DHT22;62514;48.112;11.566;2024-01-27T05:16:28;1.60;34.50
356;DHT22;62514;48.112;11.566;2024-01-27T05:18:54;1.60;34.70
356;DHT22;62514;48.112;11.566;2024-01-27T05:21:20;1.60;35.00
356;DHT22;62514;48.112;11.566;2024-01-27T05:23:46;1.60;35.30
356;DHT22;62514;48.112;11.566;2024-01-27T05:26:12;1.50;35.30
356;DHT22;62514;48.112;11.566;2024-01-27T05:28:39;1.50;35.30
356;DHT22;62514;48.112;11.566;2024-01-27T05:31:09;1.50;35.40
356;DHT22;62514;48.112;11.566;2024-01-27T05:33:38;1.50;35.40
356;DHT22;62514;48.112;11.566;2024-01-27T05:36:05;1.40;35.40
356;DHT22;62514;48.112;11.566;2024-01-27T05:38:31;1.40;35.70
356;DHT22;62514;48.112;11.566;2024-01-27T05:41:00;1.30;36.50
356;DHT22;62514;48.112;11.566;2024-01-27T05:43:26;1.30;36.80
356;DHT22;62514;48.112;11.566;2024-01-27T05:45:52;1.30;37.10
356;DHT22;62514;48.112;11.566;2024-01-27T05:48:18;1.20;37.10
356;DHT22;62514;48.112;11.566;2024-01-27T05:50:58;1.20;37.40
356;DHT22;62514;48.112;11.566;2024-01-27T05:53:24;1.20;37.40
356;DHT22;62514;48.112;11.566;2024-01-27T05:55:51;1.20;38.00
356;DHT22;62514;48.112;11.566;2024-01-27T05:58:18;1.20;38.00
356;DHT22;62514;48.112;11.566;2024-01-27T06:00:47;1.20;38.00
356;DHT22;62514;48.112;11.566;2024-01-27T06:03:13;1.20;38.00
356;DHT22;62514;48.112;11.566;2024-01-27T06:05:41;1.30;37.80
356;DHT22;62514;48.112;11.566;2024-01-27T06:08:07;1.30;37.80
356;DHT22;62514;48.112;11.566;2024-01-27T06:10:34;1.30;37.90
356;DHT22;62514;48.112;11.566;2024-01-27T06:13:03;1.40;37.10
356;DHT22;62514;48.112;11.566;2024-01-27T06:15:29;1.30;37.10
356;DHT22;62514;48.112;11.566;2024-01-27T06:17:55;1.30;37.20
356;DHT22;62514;48.112;11.566;2024-01-27T06:20:21;1.30;37.70
356;DHT22;62514;48.112;11.566;2024-01-27T06:22:47;1.30;37.80
356;DHT22;62514;48.112;11.566;2024-01-27T06:25:13;1.30;37.60
356;DHT22;62514;48.112;11.566;2024-01-27T06:27:39;1.30;37.30
356;DHT22;62514;48.112;11.566;2024-01-27T06:30:08;1.30;37.50
356;DHT22;62514;48.112;11.566;2024-01-27T06:32:35;1.30;37.40
356;DHT22;62514;48.112;11.566;2024-01-27T06:35:01;1.20;37.80
356;DHT22;62514;48.112;11.566;2024-01-27T06:37:27;1.20;37.90
356;DHT22;62514;48.112;11.566;2024-01-27T06:39:53;1.20;37.90
356;DHT22;62514;48.112;11.566;2024-01-27T06:42:19;1.30;37.90
356;DHT22;62514;48.112;11.566;2024-01-27T06:44:45;1.30;37.70
356;DHT22;62514;48.112;11.566;2024-01-27T06:47:10;1.30;37.60
356;DHT22;62514;48.112;11.566;2024-01-27T06:49:36;1.30;37.30
356;DHT22;62514;48.112;11.566;2024-01-27T06:52:03;1.30;37.00
356;DHT22;62514;48.112;11.566;2024-01-27T06:54:29;1.30;37.10
356;DHT22;62514;48.112;11.566;2024-01-27T06:56:55;1.30;37.10
356;DHT22;62514;48.112;11.566;2024-01-27T06:59:21;1.30;37.10
356;DHT22;62514;48.112;11.566;2024-01-27T07:01:48;1.30;37.10
356;DHT22;62514;48.112;11.566;2024-01-27T07:04:14;1.30;37.20
356;DHT22;62514;48.112;11.566;2024-01-27T07:06:40;1.30;37.10
356;DHT22;62514;48.112;11.566;2024-01-27T07:09:06;1.30;37.10
356;DHT22;62514;48.112;11.566;2024-01-27T07:11:32;1.30;37.40
356;DHT22;62514;48.112;11.566;2024-01-27T07:13:59;1.30;36.70
356;DHT22;62514;48.112;11.566;2024-01-27T07:16:25;1.30;37.00
356;DHT22;62514;48.112;11.566;2024-01-27T07:18:51;1.30;37.10
356;DHT22;62514;48.112;11.566;2024-01-27T07:21:17;1.30;37.10
356;DHT22;62514;48.112;11.566;2024-01-27T07:23:43;1.30;37.10
356;DHT22;62514;48.112;11.566;2024-01-27T07:26:10;1.30;37.20
356;DHT22;62514;48.112;11.566;2024-01-27T07:28:37;1.40;37.30
356;DHT22;62514;48.112;11.566;2024-01-27T07:31:04;1.40;37.50
356;DHT22;62514;48.112;11.566;2024-01-27T07:33:30;1.50;37.20
356;DHT22;62514;48.112;11.566;2024-01-27T07:35:56;1.50;37.20
356;DHT22;62514;48.112;11.566;2024-01-27T07:38:22;1.60;37.20
356;DHT22;62514;48.112;11.566;2024-01-27T07:40:48;1.60;37.20
356;DHT22;62514;48.112;11.566;2024-01-27T07:43:14;1.70;37.20
356;DHT22;62514;48.112;11.566;2024-01-27T07:45:40;1.70;37.30
356;DHT22;62514;48.112;11.566;2024-01-27T07:48:06;1.70;36.80
356;DHT22;62514;48.112;11.566;2024-01-27T07:50:33;1.70;37.20
356;DHT22;62514;48.112;11.566;2024-01-27T07:52:59;1.80;37.30
356;DHT22;62514;48.112;11.566;2024-01-27T07:55:25;1.90;37.10
356;DHT22;62514;48.112;11.566;2024-01-27T07:57:51;2.00;36.80
356;DHT22;62514;48.112;11.566;2024-01-27T08:00:17;2.10;36.50
356;DHT22;62514;48.112;11.566;2024-01-27T08:02:43;2.30;36.10
356;DHT22;62514;48.112;11.566;2024-01-27T08:05:09;2.30;35.50
356;DHT22;62514;48.112;11.566;2024-01-27T08:07:35;2.40;34.80
356;DHT22;62514;48.112;11.566;2024-01-27T08:10:01;2.60;34.80
356;DHT22;62514;48.112;11.566;2024-01-27T08:12:27;2.70;33.90
356;DHT22;62514;48.112;11.566;2024-01-27T08:14:53;2.70;33.00
356;DHT22;62514;48.112;11.566;2024-01-27T08:17:19;2.80;30.80
356;DHT22;62514;48.112;11.566;2024-01-27T08:19:45;2.80;30.20
356;DHT22;62514;48.112;11.566;2024-01-27T08:22:11;2.90;30.00
356;DHT22;62514;48.112;11.566;2024-01-27T08:24:37;2.80;30.00
356;DHT22;62514;48.112;11.566;2024-01-27T08:27:03;2.90;29.60
356;DHT22;62514;48.112;11.566;2024-01-27T08:29:29;3.00;29.00
356;DHT22;62514;48.112;11.566;2024-01-27T08:31:55;3.10;28.60
356;DHT22;62514;48.112;11.566;2024-01-27T08:34:21;3.20;27.70
356;DHT22;62514;48.112;11.566;2024-01-27T08:36:46;3.20;28.00
356;DHT22;62514;48.112;11.566;2024-01-27T08:39:12;3.30;28.20
356;DHT22;62514;48.112;11.566;2024-01-27T08:41:38;3.50;27.60
356;DHT22;62514;48.112;11.566;2024-01-27T08:44:04;3.60;26.40
356;DHT22;62514;48.112;11.566;2024-01-27T08:46:30;3.60;25.70
356;DHT22;62514;48.112;11.566;2024-01-27T08:48:56;3.70;26.00
356;DHT22;62514;48.112;11.566;2024-01-27T08:51:22;3.80;25.80
356;DHT22;62514;48.112;11.566;2024-01-27T08:53:48;4.00;25.00
356;DHT22;62514;48.112;11.566;2024-01-27T08:56:17;4.10;25.10
356;DHT22;62514;48.112;11.566;2024-01-27T08:58:44;4.20;24.40
356;DHT22;62514;48.112;11.566;2024-01-27T09:01:10;4.30;23.80
356;DHT22;62514;48.112;11.566;2024-01-27T09:03:39;4.30;23.10
356;DHT22;62514;48.112;11.566;2024-01-27T09:06:06;4.40;21.00
356;DHT22;62514;48.112;11.566;2024-01-27T09:08:35;4.30;22.70
356;DHT22;62514;48.112;11.566;2024-01-27T09:11:04;4.40;21.70
356;DHT22;62514;48.112;11.566;2024-01-27T09:13:30;4.30;19.80
356;DHT22;62514;48.112;11.566;2024-01-27T09:15:59;4.30;21.30
356;DHT22;62514;48.112;11.566;2024-01-27T09:18:26;4.20;20.10
356;DHT22;62514;48.112;11.566;2024-01-27T09:20:52;4.10;20.20
356;DHT22;62514;48.112;11.566;2024-01-27T09:23:18;4.20;21.20
356;DHT22;62514;48.112;11.566;2024-01-27T09:25:44;4.40;20.70
356;DHT22;62514;48.112;11.566;2024-01-27T09:28:10;4.50;20.40
356;DHT22;62514;48.112;11.566;2024-01-27T09:30:37;4.70;20.20
356;DHT22;62514;48.112;11.566;2024-01-27T09:33:03;4.70;18.80
356;DHT22;62514;48.112;11.566;2024-01-27T09:35:29;4.60;17.70
356;DHT22;62514;48.112;11.566;2024-01-27T09:37:55;4.50;19.30
356;DHT22;62514;48.112;11.566;2024-01-27T09:40:21;4.20;18.10
356;DHT22;62514;48.112;11.566;2024-01-27T09:42:54;3.90;20.00
356;DHT22;62514;48.112;11.566;2024-01-27T09:45:23;3.80;19.80
356;DHT22;62514;48.112;11.566;2024-01-27T09:47:49;3.90;20.40
356;DHT22;62514;48.112;11.566;2024-01-27T09:50:18;4.00;20.80
356;DHT22;62514;48.112;11.566;2024-01-27T09:52:44;4.20;19.90
356;DHT22;62514;48.112;11.566;2024-01-27T09:55:10;4.20;19.70
356;DHT22;62514;48.112;11.566;2024-01-27T09:57:40;4.20;18.40
356;DHT22;62514;48.112;11.566;2024-01-27T10:00:10;4.10;18.30
356;DHT22;62514;48.112;11.566;2024-01-27T10:02:39;4.20;19.50
356;DHT22;62514;48.112;11.566;2024-01-27T10:05:08;4.30;19.00
356;DHT22;62514;48.112;11.566;2024-01-27T10:07:34;4.40;18.10
356;DHT22;62514;48.112;11.566;2024-01-27T10:10:00;4.40;16.10
356;DHT22;62514;48.112;11.566;2024-01-27T10:12:28;4.70;17.10
356;DHT22;62514;48.112;11.566;2024-01-27T10:14:54;5.10;17.10
356;DHT22;62514;48.112;11.566;2024-01-27T10:17:24;5.10;14.90
356;DHT22;62514;48.112;11.566;2024-01-27T10:20:04;5.10;14.90
356;DHT22;62514;48.112;11.566;2024-01-27T10:22:40;5.30;15.00
356;DHT22;62514;48.112;11.566;2024-01-27T10:25:07;5.70;14.40
356;DHT22;62514;48.112;11.566;2024-01-27T10:27:33;6.00;11.20
356;DHT22;62514;48.112;11.566;2024-01-27T10:29:59;6.30;10.40
356;DHT22;62514;48.112;11.566;2024-01-27T10:32:25;7.70;9.50
356;DHT22;62514;48.112;11.566;2024-01-27T10:35:05;9.10;1.00
356;DHT22;62514;48.112;11.566;2024-01-27T10:37:31;9.80;1.00
356;DHT22;62514;48.112;11.566;2024-01-27T10:40:04;10.70;1.00
356;DHT22;62514;48.112;11.566;2024-01-27T10:42:35;11.30;1.00
356;DHT22;62514;48.112;11.566;2024-01-27T10:45:02;11.90;1.00
356;DHT22;62514;48.112;11.566;2024-01-27T10:47:30;12.60;1.00
356;DHT22;62514;48.112;11.566;2024-01-27T10:49:57;13.30;1.00
356;DHT22;62514;48.112;11.566;2024-01-27T10:52:28;14.20;1.00
356;DHT22;62514;48.112;11.566;2024-01-27T10:54:59;15.20;1.00
356;DHT22;62514;48.112;11.566;2024-01-27T10:57:33;16.10;1.00
356;DHT22;62514;48.112;11.566;2024-01-27T11:00:06;15.60;1.00
356;DHT22;62514;48.112;11.566;2024-01-27T11:02:33;15.80;99.90
356;DHT22;62514;48.112;11.566;2024-01-27T11:05:03;16.40;90.00
356;DHT22;62514;48.112;11.566;2024-01-27T11:07:34;15.60;1.00
356;DHT22;62514;48.112;11.566;2024-01-27T11:10:01;15.00;1.00
356;DHT22;62514;48.112;11.566;2024-01-27T11:12:27;15.90;1.00
356;DHT22;62514;48.112;11.566;2024-01-27T11:14:53;17.50;1.00
356;DHT22;62514;48.112;11.566;2024-01-27T11:17:20;18.00;12.70
356;DHT22;62514;48.112;11.566;2024-01-27T11:19:46;17.70;1.00
356;DHT22;62514;48.112;11.566;2024-01-27T11:22:28;17.10;35.50
356;DHT22;62514;48.112;11.566;2024-01-27T11:25:14;16.10;1.00
356;DHT22;62514;48.112;11.566;2024-01-27T11:27:43;15.50;28.40
356;DHT22;62514;48.112;11.566;2024-01-27T11:30:29;14.80;1.00
356;DHT22;62514;48.112;11.566;2024-01-27T11:33:01;16.10;1.00
356;DHT22;62514;48.112;11.566;2024-01-27T11:35:27;17.70;1.00
356;DHT22;62514;48.112;11.566;2024-01-27T11:37:54;18.10;1.00
356;DHT22;62514;48.112;11.566;2024-01-27T11:40:20;18.00;1.00
356;DHT22;62514;48.112;11.566;2024-01-27T11:43:01;18.20;1.00
356;DHT22;62514;48.112;11.566;2024-01-27T11:45:28;17.60;1.00
356;DHT22;62514;48.112;11.566;2024-01-27T11:47:56;18.90;1.00
356;DHT22;62514;48.112;11.566;2024-01-27T11:50:22;19.10;38.40
356;DHT22;62514;48.112;11.566;2024-01-27T11:52:49;19.00;1.00
356;DHT22;62514;48.112;11.566;2024-01-27T11:55:15;19.70;1.00
356;DHT22;62514;48.112;11.566;2024-01-27T11:57:44;20.30;47.70
356;DHT22;62514;48.112;11.566;2024-01-27T12:00:10;20.50;1.00
356;DHT22;62514;48.112;11.566;2024-01-27T12:02:40;20.50;1.00
356;DHT22;62514;48.112;11.566;2024-01-27T12:05:08;19.00;67.90
356;DHT22;62514;48.112;11.566;2024-01-27T12:07:34;17.90;1.00
356;DHT22;62514;48.112;11.566;2024-01-27T12:10:01;19.30;9.50
356;DHT22;62514;48.112;11.566;2024-01-27T12:12:26;20.40;1.40
356;DHT22;62514;48.112;11.566;2024-01-27T12:14:53;20.40;7.60
356;DHT22;62514;48.112;11.566;2024-01-27T12:17:22;20.80;1.00
356;DHT22;62514;48.112;11.566;2024-01-27T12:19:49;20.80;1.00
356;DHT22;62514;48.112;11.566;2024-01-27T12:22:26;20.90;2.60
356;DHT22;62514;48.112;11.566;2024-01-27T12:24:56;20.50;1.90
356;DHT22;62514;48.112;11.566;2024-01-27T12:27:33;18.70;1.00
356;DHT22;62514;48.112;11.566;2024-01-27T12:30:00;17.90;1.00
356;DHT22;62514;48.112;11.566;2024-01-27T12:32:27;19.10;13.40
356;DHT22;62514;48.112;11.566;2024-01-27T12:34:53;19.10;1.00
356;DHT22;62514;48.112;11.566;2024-01-27T12:37:21;20.20;1.00
356;DHT22;62514;48.112;11.566;2024-01-27T12:39:47;19.50;1.00
356;DHT22;62514;48.112;11.566;2024-01-27T12:42:17;18.60;1.00
356;DHT22;62514;48.112;11.566;2024-01-27T12:44:43;19.30;14.30
356;DHT22;62514;48.112;11.566;2024-01-27T12:47:12;20.70;1.00
356;DHT22;62514;48.112;11.566;2024-01-27T12:49:39;21.30;11.80
356;DHT22;62514;48.112;11.566;2024-01-27T12:52:06;20.30;11.60
356;DHT22;62514;48.112;11.566;2024-01-27T12:54:33;19.50;15.50
356;DHT22;62514;48.112;11.566;2024-01-27T12:56:59;20.00;22.10
356;DHT22;62514;48.112;11.566;2024-01-27T12:59:27;21.10;31.50
356;DHT22;62514;48.112;11.566;2024-01-27T13:01:52;21.40;27.10
356;DHT22;62514;48.112;11.566;2024-01-27T13:04:18;22.10;7.50
356;DHT22;62514;48.112;11.566;2024-01-27T13:06:44;22.40;1.00
356;DHT22;62514;48.112;11.566;2024-01-27T13:09:11;22.40;5.10
356;DHT22;62514;48.112;11.566;2024-01-27T13:11:40;23.00;1.00
356;DHT22;62514;48.112;11.566;2024-01-27T13:14:06;23.60;1.00
356;DHT22;62514;48.112;11.566;2024-01-27T13:16:32;22.10;1.00
356;DHT22;62514;48.112;11.566;2024-01-27T13:18:58;20.30;1.00
356;DHT22;62514;48.112;11.566;2024-01-27T13:21:24;20.10;1.00
356;DHT22;62514;48.112;11.566;2024-01-27T13:23:50;20.00;1.00
356;DHT22;62514;48.112;11.566;2024-01-27T13:26:18;18.60;1.00
356;DHT22;62514;48.112;11.566;2024-01-27T13:28:45;17.80;1.00
356;DHT22;62514;48.112;11.566;2024-01-27T13:31:11;18.10;1.00
356;DHT22;62514;48.112;11.566;2024-01-27T13:33:36;17.80;1.00
356;DHT22;62514;48.112;11.566;2024-01-27T13:36:03;17.40;1.00
356;DHT22;62514;48.112;11.566;2024-01-27T13:38:29;16.80;13.30
356;DHT22;62514;48.112;11.566;2024-01-27T13:40:55;17.40;25.50
356;DHT22;62514;48.112;11.566;2024-01-27T13:43:21;17.60;1.00
356;DHT22;62514;48.112;11.566;2024-01-27T13:45:47;17.50;1.00
356;DHT22;62514;48.112;11.566;2024-01-27T13:48:13;17.80;1.00
356;DHT22;62514;48.112;11.566;2024-01-27T13:50:39;17.80;1.00
356;DHT22;62514;48.112;11.566;2024-01-27T13:53:05;18.20;5.30
356;DHT22;62514;48.112;11.566;2024-01-27T13:55:32;18.50;54.00
356;DHT22;62514;48.112;11.566;2024-01-27T13:57:58;17.40;3.30
356;DHT22;62514;48.112;11.566;2024-01-27T14:00:23;16.80;36.10
356;DHT22;62514;48.112;11.566;2024-01-27T14:02:49;17.10;14.30
356;DHT22;62514;48.112;11.566;2024-01-27T14:05:15;18.20;22.10
356;DHT22;62514;48.112;11.566;2024-01-27T14:07:41;19.80;30.20
356;DHT22;62514;48.112;11.566;2024-01-27T14:10:07;20.40;1.00
356;DHT22;62514;48.112;11.566;2024-01-27T14:12:34;20.70;1.00
356;DHT22;62514;48.112;11.566;2024-01-27T14:15:04;20.70;1.00
356;DHT22;62514;48.112;11.566;2024-01-27T14:17:34;20.80;1.00
356;DHT22;62514;48.112;11.566;2024-01-27T14:20:02;20.50;1.00
356;DHT22;62514;48.112;11.566;2024-01-27T14:22:29;18.00;1.00
356;DHT22;62514;48.112;11.566;2024-01-27T14:24:55;16.90;1.00
356;DHT22;62514;48.112;11.566;2024-01-27T14:27:22;16.50;5.50
356;DHT22;62514;48.112;11.566;2024-01-27T14:29:55;16.00;1.00
356;DHT22;62514;48.112;11.566;2024-01-27T14:32:21;15.70;2.60
356;DHT22;62514;48.112;11.566;2024-01-27T14:34:48;15.80;16.80
356;DHT22;62514;48.112;11.566;2024-01-27T14:37:14;15.80;7.60
356;DHT22;62514;48.112;11.566;2024-01-27T14:39:45;15.20;21.00
356;DHT22;62514;48.112;11.566;2024-01-27T14:42:12;14.90;12.00
356;DHT22;62514;48.112;11.566;2024-01-27T14:44:39;15.50;33.80
356;DHT22;62514;48.112;11.566;2024-01-27T14:47:05;15.90;11.20
356;DHT22;62514;48.112;11.566;2024-01-27T14:49:32;15.80;14.20
356;DHT22;62514;48.112;11.566;2024-01-27T14:51:58;15.70;16.30
356;DHT22;62514;48.112;11.566;2024-01-27T14:54:24;14.70;1.00
356;DHT22;62514;48.112;11.566;2024-01-27T14:56:50;13.30;1.00
356;DHT22;62514;48.112;11.566;2024-01-27T14:59:16;12.00;10.50
356;DHT22;62514;48.112;11.566;2024-01-27T15:01:42;11.00;1.00
356;DHT22;62514;48.112;11.566;2024-01-27T15:04:08;10.00;1.00
356;DHT22;62514;48.112;11.566;2024-01-27T15:06:34;9.50;1.00
356;DHT22;62514;48.112;11.566;2024-01-27T15:09:00;8.90;1.00
356;DHT22;62514;48.112;11.566;2024-01-27T15:11:26;8.30;3.10
356;DHT22;62514;48.112;11.566;2024-01-27T15:13:52;8.10;14.20
356;DHT22;62514;48.112;11.566;2024-01-27T15:16:18;7.80;12.50
356;DHT22;62514;48.112;11.566;2024-01-27T15:18:44;7.70;32.30
356;DHT22;62514;48.112;11.566;2024-01-27T15:21:10;7.40;40.30
356;DHT22;62514;48.112;11.566;2024-01-27T15:23:36;7.30;36.30
356;DHT22;62514;48.112;11.566;2024-01-27T15:26:04;7.10;55.90
356;DHT22;62514;48.112;11.566;2024-01-27T15:28:31;7.00;19.90
356;DHT22;62514;48.112;11.566;2024-01-27T15:30:58;6.80;88.10
356;DHT22;62514;48.112;11.566;2024-01-27T15:33:24;6.70;96.60
356;DHT22;62514;48.112;11.566;2024-01-27T15:35:50;6.50;17.30
356;DHT22;62514;48.112;11.566;2024-01-27T15:38:16;6.40;1.00
356;DHT22;62514;48.112;11.566;2024-01-27T15:40:42;6.30;1.00
356;DHT22;62514;48.112;11.566;2024-01-27T15:43:07;6.20;13.30
356;DHT22;62514;48.112;11.566;2024-01-27T15:45:33;6.10;30.20
356;DHT22;62514;48.112;11.566;2024-01-27T15:47:59;6.00;68.20
356;DHT22;62514;48.112;11.566;2024-01-27T15:50:26;5.90;13.40
356;DHT22;62514;48.112;11.566;2024-01-27T15:52:57;5.80;99.30
356;DHT22;62514;48.112;11.566;2024-01-27T15:55:23;5.70;38.60
356;DHT22;62514;48.112;11.566;2024-01-27T15:57:49;5.70;99.90